Terminal Aerodrome Forecast
Issued by NWS Pittsburgh, PA

Current Version | Previous Version | Graphics & Text | Print | Product List | Glossary On
Versions: 1 2 3 4 5 6 7 8 9 10 11 12 13 14 15 16 17 18 19 20 21 22 23 24 25
717
FTUS41 KPBZ 202320
TAFPIT
TAF
KPIT 202320Z 2100/2206 23004KT P6SM OVC035
     FM210030 16004KT P6SM -RA OVC030
     FM210400 21003KT 4SM BR OVC022
     FM210800 26003KT 3SM BR OVC008
     FM211400 33006KT P6SM BKN015
     FM211600 33006KT P6SM BKN035=

USA.gov is the U.S. government's official web portal to all federal, state and local government web resources and services.